createdAt,value
2017-10-19T00:01:57.762Z,26.23
2017-10-19T00:04:24.459Z,28.62
2017-10-19T00:06:51.769Z,30.85
2017-10-19T00:09:18.572Z,29.60
2017-10-19T00:11:45.091Z,33.42
2017-10-19T00:14:12.582Z,27.23
2017-10-19T00:16:38.806Z,24.98
2017-10-19T00:19:06.551Z,34.50
2017-10-19T00:21:34.110Z,33.60
2017-10-19T00:24:00.778Z,42.15
2017-10-19T00:26:28.106Z,35.53
2017-10-19T00:28:55.189Z,34.28
2017-10-19T00:31:21.375Z,33.70
2017-10-19T00:33:48.316Z,33.85
2017-10-19T00:36:15.377Z,36.00
2017-10-19T00:38:41.611Z,28.67
2017-10-19T00:41:07.825Z,30.42
2017-10-19T00:43:34.048Z,28.62
2017-10-19T00:46:01.425Z,30.33
2017-10-19T00:48:27.734Z,32.92
2017-10-19T00:50:54.565Z,36.60
2017-10-19T00:53:22.929Z,40.33
2017-10-19T00:55:49.826Z,40.33
2017-10-19T00:58:16.259Z,37.30
2017-10-19T01:00:44.432Z,43.78
2017-10-19T01:03:11.651Z,33.85
2017-10-19T01:05:38.978Z,41.47
2017-10-19T01:08:07.410Z,35.58
2017-10-19T01:10:34.634Z,28.08
2017-10-19T01:13:01.476Z,22.05
2017-10-19T01:15:28.713Z,36.65
2017-10-19T01:17:56.255Z,42.70
2017-10-19T01:20:23.475Z,52.22
2017-10-19T01:22:50.199Z,48.22
2017-10-19T01:25:17.082Z,23.65
2017-10-19T01:27:43.477Z,39.13
2017-10-19T01:30:11.592Z,36.88
2017-10-19T01:32:38.791Z,26.02
2017-10-19T01:35:05.650Z,32.42
2017-10-19T01:37:31.911Z,33.63
2017-10-19T01:39:59.208Z,46.97
2017-10-19T01:42:25.471Z,32.95
2017-10-19T01:44:52.613Z,25.83
2017-10-19T01:47:19.260Z,31.10
2017-10-19T01:49:58.056Z,54.17
2017-10-19T01:52:24.943Z,59.28
2017-10-19T01:54:52.227Z,70.03
2017-10-19T01:57:19.754Z,24.48
2017-10-19T01:59:46.571Z,30.92
2017-10-19T02:02:12.856Z,26.75
2017-10-19T02:04:40.835Z,34.88
2017-10-19T02:07:07.973Z,37.97
2017-10-19T02:09:34.935Z,24.40
2017-10-19T02:12:01.807Z,44.22
2017-10-19T02:14:28.572Z,41.42
2017-10-19T02:16:55.367Z,28.48
2017-10-19T02:19:22.090Z,24.45
2017-10-19T02:21:48.344Z,27.92
2017-10-19T02:24:14.610Z,26.15
2017-10-19T02:26:40.910Z,23.25
2017-10-19T02:29:07.399Z,20.52
2017-10-19T02:31:34.970Z,28.42
2017-10-19T02:34:01.889Z,35.55
2017-10-19T02:36:29.380Z,23.10
2017-10-19T02:38:56.173Z,33.25
2017-10-19T02:41:23.399Z,22.77
2017-10-19T02:43:50.156Z,22.77
2017-10-19T02:46:16.727Z,23.75
2017-10-19T02:48:44.064Z,24.20
2017-10-19T02:51:12.508Z,18.12
2017-10-19T02:53:39.213Z,22.08
2017-10-19T02:56:06.409Z,13.80
2017-10-19T02:58:33.398Z,21.62
2017-10-19T03:01:01.377Z,24.67
2017-10-19T03:03:27.607Z,16.58
2017-10-19T03:05:54.272Z,21.75
2017-10-19T03:08:20.679Z,14.73
2017-10-19T03:10:48.298Z,28.70
2017-10-19T03:13:14.574Z,27.60
2017-10-19T03:15:41.014Z,25.00
2017-10-19T03:18:07.886Z,34.25
2017-10-19T03:20:35.012Z,35.55
2017-10-19T03:23:01.982Z,26.37
2017-10-19T03:25:29.412Z,40.05
2017-10-19T03:27:57.040Z,20.23
2017-10-19T03:30:25.335Z,32.60
2017-10-19T03:32:52.478Z,33.65
2017-10-19T03:35:18.954Z,27.95
2017-10-19T03:37:45.179Z,20.33
2017-10-19T03:40:11.659Z,40.53
2017-10-19T03:42:38.742Z,31.17
2017-10-19T03:45:04.972Z,133.12
2017-10-19T03:47:31.436Z,23.23
2017-10-19T03:49:58.707Z,40.47
2017-10-19T03:52:24.914Z,19.62
2017-10-19T03:54:51.741Z,37.67
2017-10-19T03:57:17.996Z,16.70
2017-10-19T03:59:44.693Z,38.72
2017-10-19T04:02:10.948Z,33.97
2017-10-19T04:04:38.100Z,22.20
2017-10-19T04:07:06.339Z,21.20
2017-10-19T04:09:33.157Z,21.17
2017-10-19T04:12:01.526Z,23.42
2017-10-19T04:14:28.484Z,24.80
2017-10-19T04:16:55.303Z,36.55
2017-10-19T04:19:23.686Z,37.95
2017-10-19T04:21:51.270Z,71.90
2017-10-19T04:24:18.261Z,29.05
2017-10-19T04:26:44.729Z,41.88
2017-10-19T04:29:12.341Z,49.05
2017-10-19T04:31:38.540Z,31.58
2017-10-19T04:34:05.101Z,37.30
2017-10-19T04:36:33.122Z,83.55
2017-10-19T04:39:00.565Z,50.40
2017-10-19T04:41:28.481Z,52.70
2017-10-19T04:43:55.296Z,37.67
2017-10-19T04:46:22.263Z,34.88
2017-10-19T04:48:48.476Z,24.83
2017-10-19T04:51:16.289Z,33.55
2017-10-19T04:53:43.477Z,35.35
2017-10-19T04:56:10.509Z,27.45
2017-10-19T04:58:40.190Z,29.27
2017-10-19T05:01:06.435Z,21.40
2017-10-19T05:03:32.956Z,30.40
2017-10-19T05:06:01.299Z,26.87
2017-10-19T05:08:27.723Z,23.45
2017-10-19T05:10:54.708Z,24.60
2017-10-19T05:13:21.578Z,24.52
2017-10-19T05:15:49.044Z,21.40
2017-10-19T05:18:16.663Z,24.70
2017-10-19T05:20:44.794Z,25.02
2017-10-19T05:23:11.752Z,20.70
2017-10-19T05:25:38.693Z,28.10
2017-10-19T05:28:05.942Z,30.65
2017-10-19T05:30:32.166Z,39.70
2017-10-19T05:32:58.382Z,23.08
2017-10-19T05:35:25.352Z,30.02
2017-10-19T05:37:51.551Z,29.95
2017-10-19T05:40:18.506Z,36.63
2017-10-19T05:42:45.458Z,32.33
2017-10-19T05:45:11.832Z,34.35
2017-10-19T05:47:40.171Z,29.37
2017-10-19T05:50:07.004Z,26.45
2017-10-19T05:52:33.540Z,27.17
2017-10-19T05:54:59.776Z,15.52
2017-10-19T05:57:26.641Z,24.20
2017-10-19T05:59:52.993Z,18.15
2017-10-19T06:02:19.454Z,27.23
2017-10-19T06:04:47.612Z,21.05
2017-10-19T06:07:14.353Z,19.40
2017-10-19T06:09:40.831Z,25.60
2017-10-19T06:12:07.863Z,22.37
2017-10-19T06:14:34.209Z,30.25
2017-10-19T06:17:01.248Z,24.23
2017-10-19T06:19:28.260Z,20.25
2017-10-19T06:21:55.239Z,18.27
2017-10-19T06:24:21.676Z,15.90
2017-10-19T06:26:48.731Z,18.73
2017-10-19T06:29:15.005Z,21.35
2017-10-19T06:31:41.776Z,22.20
2017-10-19T06:34:08.745Z,17.23
2017-10-19T06:36:35.196Z,16.87
2017-10-19T06:39:02.265Z,18.33
2017-10-19T06:41:29.839Z,17.33
2017-10-19T06:43:57.538Z,20.25
2017-10-19T06:46:24.306Z,18.33
2017-10-19T06:48:50.537Z,20.58
2017-10-19T06:51:16.794Z,18.42
2017-10-19T06:53:43.045Z,22.08
2017-10-19T06:56:10.573Z,19.08
2017-10-19T06:58:37.388Z,27.17
2017-10-19T07:01:04.410Z,22.67
2017-10-19T07:03:30.664Z,27.62
2017-10-19T07:05:57.867Z,24.35
2017-10-19T07:08:25.784Z,20.65
2017-10-19T07:10:52.979Z,21.12
2017-10-19T07:13:19.954Z,24.27
2017-10-19T07:15:46.407Z,20.98
2017-10-19T07:18:13.036Z,19.42
2017-10-19T07:20:39.502Z,23.02
2017-10-19T07:23:06.955Z,25.27
2017-10-19T07:25:35.180Z,24.37
2017-10-19T07:28:01.413Z,25.50
2017-10-19T07:30:28.277Z,25.75
2017-10-19T07:32:55.289Z,20.30
2017-10-19T07:35:22.222Z,20.62
2017-10-19T07:37:50.689Z,20.12
2017-10-19T07:40:17.767Z,20.20
2017-10-19T07:42:44.827Z,24.27
2017-10-19T07:45:11.141Z,25.90
2017-10-19T07:47:39.073Z,19.52
2017-10-19T07:50:05.836Z,21.37
2017-10-19T07:52:33.072Z,21.42
2017-10-19T07:55:01.486Z,26.15
2017-10-19T07:57:27.719Z,23.40
2017-10-19T07:59:53.915Z,20.35
2017-10-19T08:02:20.149Z,22.70
2017-10-19T08:04:47.107Z,20.37
2017-10-19T08:07:14.047Z,21.05
2017-10-19T08:09:41.009Z,22.60
2017-10-19T08:12:07.268Z,25.12
2017-10-19T08:14:34.874Z,23.73
2017-10-19T08:17:02.391Z,15.88
2017-10-19T08:19:29.720Z,20.58
2017-10-19T08:21:57.112Z,19.25
2017-10-19T08:24:24.785Z,18.80
2017-10-19T08:26:51.890Z,21.15
2017-10-19T08:29:18.209Z,16.55
2017-10-19T08:31:45.902Z,21.45
2017-10-19T08:34:12.154Z,30.80
2017-10-19T08:36:38.641Z,33.67
2017-10-19T08:39:04.916Z,25.85
2017-10-19T08:41:31.131Z,23.85
2017-10-19T08:43:57.652Z,22.52
2017-10-19T08:46:24.583Z,23.40
2017-10-19T08:48:51.526Z,24.52
2017-10-19T08:51:18.687Z,28.77
2017-10-19T08:53:45.101Z,26.45
2017-10-19T08:56:11.816Z,26.80
2017-10-19T08:58:38.185Z,22.98
2017-10-19T09:01:04.909Z,22.52
2017-10-19T09:03:31.518Z,16.02
2017-10-19T09:05:59.342Z,19.87
2017-10-19T09:08:25.848Z,21.05
2017-10-19T09:10:52.677Z,21.35
2017-10-19T09:13:19.538Z,21.87
2017-10-19T09:15:46.305Z,16.92
2017-10-19T09:18:13.392Z,21.95
2017-10-19T09:20:40.973Z,23.87
2017-10-19T09:23:08.425Z,20.85
2017-10-19T09:25:35.731Z,22.40
2017-10-19T09:28:02.018Z,22.60
2017-10-19T09:30:28.491Z,22.15
2017-10-19T09:32:54.926Z,21.05
2017-10-19T09:35:22.442Z,21.10
2017-10-19T09:37:48.656Z,21.20
2017-10-19T09:40:15.021Z,22.33
2017-10-19T09:42:41.260Z,18.90
2017-10-19T09:45:08.402Z,19.62
2017-10-19T09:47:35.105Z,21.77
2017-10-19T09:50:01.953Z,20.80
2017-10-19T09:52:28.534Z,20.80
2017-10-19T09:54:55.528Z,18.75
2017-10-19T09:57:21.790Z,18.77
2017-10-19T09:59:48.196Z,18.60
2017-10-19T10:02:15.629Z,22.17
2017-10-19T10:04:44.525Z,23.27
2017-10-19T10:07:11.428Z,23.17
2017-10-19T10:09:37.643Z,20.97
2017-10-19T10:12:04.180Z,24.45
2017-10-19T10:14:31.208Z,18.57
2017-10-19T10:16:57.471Z,24.50
2017-10-19T10:19:24.242Z,24.90
2017-10-19T10:21:51.604Z,23.60
2017-10-19T10:24:18.659Z,23.13
2017-10-19T10:26:45.514Z,26.20
2017-10-19T10:29:12.367Z,28.10
2017-10-19T10:31:38.576Z,26.10
2017-10-19T10:34:04.895Z,26.27
2017-10-19T10:36:32.801Z,24.83
2017-10-19T10:38:59.049Z,29.80
2017-10-19T10:41:26.362Z,28.00
2017-10-19T10:43:52.883Z,28.17
2017-10-19T10:46:19.120Z,25.40
2017-10-19T10:48:45.374Z,27.30
2017-10-19T10:51:12.229Z,27.77
2017-10-19T10:53:38.628Z,28.23
2017-10-19T10:56:05.435Z,31.93
2017-10-19T10:58:32.964Z,28.87
2017-10-19T11:01:00.198Z,32.63
2017-10-19T11:03:26.451Z,33.73
2017-10-19T11:05:52.692Z,29.43
2017-10-19T11:08:20.110Z,30.93
2017-10-19T11:10:47.153Z,38.40
2017-10-19T11:13:20.811Z,34.10
2017-10-19T11:15:47.880Z,31.73
2017-10-19T11:18:14.381Z,27.90
2017-10-19T11:20:41.399Z,36.07
2017-10-19T11:23:08.049Z,35.60
2017-10-19T11:25:35.709Z,31.13
2017-10-19T11:28:02.059Z,38.27
2017-10-19T11:30:29.559Z,33.60
2017-10-19T11:32:56.423Z,28.70
2017-10-19T11:35:22.881Z,31.23
2017-10-19T11:37:49.887Z,32.93
2017-10-19T11:40:16.212Z,28.77
2017-10-19T11:42:42.452Z,33.50
2017-10-19T11:45:09.120Z,26.10
2017-10-19T11:47:36.784Z,31.70
2017-10-19T11:50:03.520Z,28.70
2017-10-19T11:52:29.981Z,31.20
2017-10-19T11:54:57.317Z,31.60
2017-10-19T11:57:24.386Z,32.13
2017-10-19T11:59:51.743Z,28.70
2017-10-19T12:02:18.320Z,32.73
2017-10-19T12:04:45.588Z,39.40
2017-10-19T12:07:13.618Z,29.50
2017-10-19T12:09:40.748Z,31.60
2017-10-19T12:12:07.011Z,30.73
2017-10-19T12:14:33.391Z,31.17
2017-10-19T12:17:00.721Z,31.17
2017-10-19T12:19:27.947Z,28.67
2017-10-19T12:21:54.896Z,29.20
2017-10-19T12:24:21.097Z,30.73
2017-10-19T12:26:47.332Z,31.43
2017-10-19T12:29:14.124Z,28.43
2017-10-19T12:31:40.711Z,27.40
2017-10-19T12:34:07.751Z,33.23
2017-10-19T12:36:34.263Z,28.37
2017-10-19T12:39:01.272Z,32.57
2017-10-19T12:41:27.504Z,34.33
2017-10-19T12:43:53.835Z,32.53
2017-10-19T12:46:20.484Z,33.93
2017-10-19T12:48:46.731Z,30.90
2017-10-19T13:01:00.688Z,31.73
2017-10-19T13:03:27.183Z,30.90
2017-10-19T13:05:54.222Z,32.87
2017-10-19T13:08:21.365Z,33.53
2017-10-19T13:10:48.362Z,34.67
2017-10-19T13:13:15.049Z,32.13
2017-10-19T13:15:42.394Z,32.10
2017-10-19T13:18:08.584Z,35.43
2017-10-19T13:20:35.792Z,38.03
2017-10-19T13:23:02.028Z,36.30
2017-10-19T13:25:29.337Z,44.50
2017-10-19T13:27:55.736Z,31.27
2017-10-19T13:30:22.131Z,29.80
2017-10-19T13:32:48.844Z,30.70
2017-10-19T13:35:16.534Z,34.33
2017-10-19T13:37:43.506Z,35.03
2017-10-19T13:40:09.942Z,39.83
2017-10-19T13:42:36.768Z,41.13
2017-10-19T13:45:03.160Z,36.27
2017-10-19T13:47:30.495Z,43.33
2017-10-19T13:49:58.073Z,35.70
2017-10-19T13:52:24.840Z,37.40
2017-10-19T13:54:54.082Z,40.00
2017-10-19T13:57:20.294Z,40.73
2017-10-19T13:59:47.229Z,41.77
2017-10-19T14:02:26.390Z,38.53
2017-10-19T14:05:06.439Z,41.13
2017-10-19T14:07:43.200Z,37.93
2017-10-19T14:10:10.517Z,44.27
2017-10-19T14:12:37.866Z,41.23
2017-10-19T14:15:04.815Z,43.40
2017-10-19T14:17:32.311Z,41.03
2017-10-19T14:19:59.327Z,45.87
2017-10-19T14:22:26.993Z,53.30
2017-10-19T14:24:54.111Z,50.93
2017-10-19T14:27:20.361Z,49.80
2017-10-19T14:29:48.628Z,50.13
2017-10-19T14:32:16.163Z,48.13
2017-10-19T14:34:43.350Z,47.53
2017-10-19T14:37:10.518Z,47.60
2017-10-19T14:39:37.276Z,43.30
2017-10-19T14:42:03.535Z,47.33
2017-10-19T14:44:30.259Z,52.67
2017-10-19T14:46:57.785Z,46.80
2017-10-19T14:49:24.591Z,55.73
2017-10-19T14:51:51.647Z,41.67
2017-10-19T14:54:18.686Z,45.17
2017-10-19T14:56:46.639Z,46.33
2017-10-19T14:59:13.431Z,55.03
2017-10-19T15:01:40.192Z,49.10
2017-10-19T15:04:07.161Z,48.77
2017-10-19T15:06:33.531Z,52.17
2017-10-19T15:09:00.176Z,51.53
2017-10-19T15:11:27.208Z,62.37
2017-10-19T15:13:54.317Z,54.97
2017-10-19T15:16:21.587Z,55.90
2017-10-19T15:18:49.068Z,52.80
2017-10-19T15:21:17.338Z,54.50
2017-10-19T15:23:44.554Z,55.00
2017-10-19T15:26:11.142Z,56.93
2017-10-19T15:28:38.795Z,55.03
2017-10-19T15:31:05.088Z,58.67
2017-10-19T15:33:32.793Z,59.30
2017-10-19T15:36:00.193Z,58.40
2017-10-19T15:38:27.193Z,54.43
2017-10-19T15:40:53.421Z,59.70
2017-10-19T15:43:20.272Z,56.70
2017-10-19T15:45:47.017Z,51.67
2017-10-19T15:48:14.103Z,55.37
2017-10-19T15:50:53.237Z,57.17
2017-10-19T15:53:20.879Z,53.03
2017-10-19T15:55:47.678Z,56.70
2017-10-19T15:58:14.679Z,59.97
2017-10-19T16:00:41.330Z,51.07
2017-10-19T16:03:08.981Z,62.50
2017-10-19T16:05:35.724Z,51.60
2017-10-19T16:08:02.767Z,65.85
2017-10-19T16:10:30.208Z,67.35
2017-10-19T16:12:56.691Z,67.70
2017-10-19T16:15:22.934Z,61.97
2017-10-19T16:17:49.161Z,58.10
2017-10-19T16:20:15.916Z,65.10
2017-10-19T16:22:42.522Z,67.72
2017-10-19T16:25:10.860Z,66.37
2017-10-19T16:27:37.757Z,68.93
2017-10-19T16:30:05.422Z,70.22
2017-10-19T16:32:31.904Z,70.87
2017-10-19T16:34:59.328Z,61.05
2017-10-19T16:37:26.979Z,66.95
2017-10-19T16:39:54.017Z,73.20
2017-10-19T16:42:20.562Z,72.00
2017-10-19T16:44:48.031Z,71.45
2017-10-19T16:47:14.819Z,72.75
2017-10-19T16:49:42.203Z,82.70
2017-10-19T16:52:08.854Z,90.80
2017-10-19T16:54:36.468Z,89.40
2017-10-19T16:57:02.739Z,109.63
2017-10-19T16:59:29.565Z,87.07
2017-10-19T17:01:55.816Z,119.62
2017-10-19T17:04:22.023Z,98.28
2017-10-19T17:06:49.980Z,98.90
2017-10-19T17:09:17.971Z,101.25
2017-10-19T17:11:44.624Z,107.00
2017-10-19T17:14:12.828Z,85.47
2017-10-19T17:16:40.358Z,50.63
2017-10-19T17:19:06.699Z,56.22
2017-10-19T17:21:33.585Z,61.70
2017-10-19T17:23:59.865Z,57.70
2017-10-19T17:26:26.168Z,51.13
2017-10-19T17:28:53.356Z,69.55
2017-10-19T17:31:20.806Z,59.75
2017-10-19T17:33:47.156Z,80.25
2017-10-19T17:36:14.252Z,75.75
2017-10-19T17:38:40.532Z,88.53
2017-10-19T17:41:06.766Z,77.78
2017-10-19T17:43:33.151Z,109.85
2017-10-19T17:46:00.162Z,94.87
2017-10-19T17:48:26.423Z,86.70
2017-10-19T17:50:52.658Z,76.05
2017-10-19T17:53:18.903Z,55.40
2017-10-19T17:55:46.692Z,85.80
2017-10-19T17:58:13.338Z,73.45
2017-10-19T18:00:40.920Z,54.40
2017-10-19T18:03:08.958Z,73.30
2017-10-19T18:05:35.316Z,80.75
2017-10-19T18:08:02.609Z,85.50
2017-10-19T18:10:29.990Z,65.65
2017-10-19T18:12:57.723Z,84.75
2017-10-19T18:15:24.524Z,80.50
2017-10-19T18:17:51.515Z,63.35
2017-10-19T18:20:17.853Z,88.25
2017-10-19T18:22:44.256Z,86.70
2017-10-19T18:25:10.510Z,75.65
2017-10-19T18:27:36.862Z,62.42
2017-10-19T18:30:04.193Z,55.15
2017-10-19T18:32:30.495Z,49.65
2017-10-19T18:34:57.827Z,60.35
2017-10-19T18:37:24.606Z,56.83
2017-10-19T18:39:52.312Z,66.75
2017-10-19T18:42:18.636Z,84.28
2017-10-19T18:44:45.914Z,72.60
2017-10-19T18:47:13.489Z,50.47
2017-10-19T18:49:40.678Z,52.75
2017-10-19T18:52:06.883Z,55.22
2017-10-19T18:54:33.559Z,45.17
2017-10-19T18:57:00.574Z,38.00
2017-10-19T18:59:27.029Z,38.85
2017-10-19T19:01:54.328Z,45.45
2017-10-19T19:04:21.647Z,38.20
2017-10-19T19:06:49.023Z,40.42
2017-10-19T19:09:16.900Z,26.62
2017-10-19T19:11:44.255Z,29.75
2017-10-19T19:14:11.491Z,32.42
2017-10-19T19:16:38.707Z,27.58
2017-10-19T19:19:04.943Z,34.50
2017-10-19T19:21:32.042Z,33.00
2017-10-19T19:23:59.499Z,38.58
2017-10-19T19:26:25.976Z,37.40
2017-10-19T19:28:53.455Z,47.83
2017-10-19T19:31:20.471Z,56.13
2017-10-19T19:33:46.685Z,75.75
2017-10-19T19:36:12.942Z,79.80
2017-10-19T19:38:39.153Z,62.53
2017-10-19T19:41:05.524Z,97.93
2017-10-19T19:43:31.717Z,122.57
2017-10-19T19:45:58.202Z,94.32
2017-10-19T19:48:25.786Z,201.07
2017-10-19T19:50:53.536Z,76.10
2017-10-19T19:53:20.492Z,57.25
2017-10-19T19:55:46.739Z,73.70
2017-10-19T19:58:13.487Z,55.60
2017-10-19T20:00:39.934Z,113.47
2017-10-19T20:03:07.784Z,68.40
2017-10-19T20:05:34.028Z,73.43
2017-10-19T20:08:00.764Z,71.65
2017-10-19T20:10:27.114Z,88.60
2017-10-19T20:12:53.364Z,42.85
2017-10-19T20:15:21.688Z,49.63
2017-10-19T20:17:48.693Z,46.10
2017-10-19T20:20:15.844Z,46.53
2017-10-19T20:22:43.204Z,54.58
2017-10-19T20:25:10.976Z,53.92
2017-10-19T20:27:39.489Z,45.85
2017-10-19T20:30:07.138Z,54.10
2017-10-19T20:32:33.904Z,45.55
2017-10-19T20:35:00.121Z,48.70
2017-10-19T20:37:26.352Z,33.47
2017-10-19T20:39:52.586Z,34.83
2017-10-19T20:42:19.448Z,58.35
2017-10-19T20:44:45.700Z,46.70
2017-10-19T20:47:12.639Z,47.65
2017-10-19T20:49:40.232Z,35.42
2017-10-19T20:52:06.699Z,65.12
2017-10-19T20:54:32.946Z,154.05
2017-10-19T20:57:00.582Z,109.90
2017-10-19T20:59:26.765Z,53.95
2017-10-19T21:01:52.993Z,117.57
2017-10-19T21:04:19.199Z,56.95
2017-10-19T21:06:46.990Z,74.50
2017-10-19T21:09:14.361Z,158.18
2017-10-19T21:11:42.139Z,62.45
2017-10-19T21:14:09.822Z,62.65
2017-10-19T21:16:36.067Z,44.08
2017-10-19T21:19:02.830Z,40.03
2017-10-19T21:21:30.347Z,37.05
2017-10-19T21:23:56.872Z,30.98
2017-10-19T21:26:24.633Z,33.42
2017-10-19T21:28:51.449Z,38.28
2017-10-19T21:31:17.664Z,39.08
2017-10-19T21:33:44.038Z,36.60
2017-10-19T21:36:11.558Z,38.75
2017-10-19T21:38:37.770Z,35.10
2017-10-19T21:41:04.986Z,31.08
2017-10-19T21:43:31.183Z,45.10
2017-10-19T21:45:58.120Z,34.75
2017-10-19T21:48:24.514Z,40.30
2017-10-19T21:50:51.563Z,48.72
2017-10-19T21:53:18.519Z,96.03
2017-10-19T21:55:45.271Z,41.37
2017-10-19T21:58:11.485Z,36.95
2017-10-19T22:00:38.323Z,32.20
2017-10-19T22:03:05.301Z,36.75
2017-10-19T22:05:31.531Z,25.55
2017-10-19T22:07:57.771Z,36.83
2017-10-19T22:10:24.623Z,51.53
2017-10-19T22:12:50.816Z,39.10
2017-10-19T22:15:17.627Z,96.32
2017-10-19T22:17:45.039Z,114.37
2017-10-19T22:20:11.234Z,39.40
2017-10-19T22:22:37.978Z,31.67
2017-10-19T22:25:04.188Z,51.33
2017-10-19T22:27:31.227Z,60.40
2017-10-19T22:29:58.505Z,48.28
2017-10-19T22:32:25.525Z,42.67
2017-10-19T22:34:52.520Z,52.78
2017-10-19T22:37:18.720Z,69.95
2017-10-19T22:39:44.924Z,51.88
2017-10-19T22:42:11.906Z,28.05
2017-10-19T22:44:38.119Z,60.67
2017-10-19T22:47:04.911Z,31.30
2017-10-19T22:49:31.716Z,52.97
2017-10-19T22:51:58.459Z,33.70
2017-10-19T22:54:24.668Z,31.25
2017-10-19T22:56:50.923Z,55.53
2017-10-19T22:59:17.944Z,31.37
2017-10-19T23:01:45.586Z,27.17
2017-10-19T23:04:12.998Z,29.02
2017-10-19T23:06:39.959Z,29.67
2017-10-19T23:09:06.240Z,22.52
2017-10-19T23:11:32.453Z,25.20
2017-10-19T23:13:58.794Z,23.00
2017-10-19T23:16:26.306Z,26.40
2017-10-19T23:18:52.732Z,24.77
2017-10-19T23:21:18.964Z,29.25
2017-10-19T23:23:45.456Z,24.52
2017-10-19T23:26:12.534Z,18.25
2017-10-19T23:28:38.751Z,29.05
2017-10-19T23:31:04.950Z,24.25
2017-10-19T23:33:31.133Z,23.48
2017-10-19T23:35:57.852Z,26.87
2017-10-19T23:38:24.831Z,21.95
2017-10-19T23:40:52.238Z,27.27
2017-10-19T23:43:19.217Z,19.10
2017-10-19T23:45:45.427Z,24.80
2017-10-19T23:48:11.608Z,19.73
2017-10-19T23:50:37.823Z,19.65
2017-10-19T23:53:04.756Z,25.35
2017-10-19T23:55:31.684Z,21.92
2017-10-19T23:57:59.323Z,21.10
